createdAt,value
2022-09-24T00:00:16.413Z,51.23
2022-09-24T00:01:16.583Z,52.77
2022-09-24T00:02:16.495Z,55.89
2022-09-24T00:03:16.486Z,54.66
2022-09-24T00:04:16.421Z,54.82
2022-09-24T00:05:16.389Z,49.79
2022-09-24T00:06:16.390Z,53.83
2022-09-24T00:07:16.372Z,51.42
2022-09-24T00:08:16.369Z,54.68
2022-09-24T00:09:16.389Z,51.08
2022-09-24T00:10:16.367Z,54.24
2022-09-24T00:11:16.356Z,53.16
2022-09-24T00:12:16.353Z,55.41
2022-09-24T00:13:16.358Z,51.55
2022-09-24T00:14:16.350Z,48.91
2022-09-24T00:15:16.346Z,55.55
2022-09-24T00:16:16.356Z,54.66
2022-09-24T00:17:16.338Z,51.75
2022-09-24T00:18:16.309Z,55.69
2022-09-24T00:19:16.305Z,54.47
2022-09-24T00:20:16.321Z,53.48
2022-09-24T00:21:16.305Z,48.94
2022-09-24T00:22:16.282Z,53.05
2022-09-24T00:23:17.281Z,52.45
2022-09-24T00:24:16.269Z,52.13
2022-09-24T00:25:16.273Z,52.20
2022-09-24T00:26:16.281Z,53.76
2022-09-24T00:27:16.250Z,55.75
2022-09-24T00:28:16.250Z,51.26
2022-09-24T00:29:16.241Z,47.88
2022-09-24T00:30:16.230Z,50.94
2022-09-24T00:31:16.275Z,52.47
2022-09-24T00:32:16.228Z,56.18
2022-09-24T00:33:16.228Z,49.01
2022-09-24T00:34:16.211Z,46.35
2022-09-24T00:35:16.214Z,46.88
2022-09-24T00:36:16.196Z,47.35
2022-09-24T00:37:16.209Z,53.31
2022-09-24T00:38:16.182Z,53.44
2022-09-24T00:39:16.187Z,57.87
2022-09-24T00:40:16.227Z,53.45
2022-09-24T00:41:16.165Z,55.14
2022-09-24T00:42:16.177Z,53.38
2022-09-24T00:43:16.160Z,50.94
2022-09-24T00:44:16.140Z,52.91
2022-09-24T00:45:16.129Z,56.04
2022-09-24T00:46:16.169Z,50.78
2022-09-24T00:47:16.149Z,49.05
2022-09-24T00:48:16.117Z,54.55
2022-09-24T00:49:16.120Z,54.01
2022-09-24T00:50:16.111Z,52.91
2022-09-24T00:51:16.103Z,54.68
2022-09-24T00:52:16.104Z,55.90
2022-09-24T00:53:16.097Z,52.99
2022-09-24T00:54:16.094Z,50.76
2022-09-24T00:55:17.075Z,57.22
2022-09-24T00:56:16.079Z,50.67
2022-09-24T00:57:16.060Z,52.17
2022-09-24T00:58:16.064Z,54.90
2022-09-24T00:59:16.052Z,50.38
2022-09-24T01:00:16.054Z,54.15
2022-09-24T01:01:16.167Z,55.69
2022-09-24T01:02:16.061Z,52.93
2022-09-24T01:03:16.018Z,55.20
2022-09-24T01:04:16.027Z,55.44
2022-09-24T01:05:16.030Z,55.32
2022-09-24T01:06:15.989Z,52.16
2022-09-24T01:07:16.002Z,51.75
2022-09-24T01:08:15.991Z,54.52
2022-09-24T01:09:15.978Z,56.02
2022-09-24T01:10:15.978Z,54.05
2022-09-24T01:11:15.986Z,57.92
2022-09-24T01:12:15.963Z,54.41
2022-09-24T01:13:15.951Z,54.84
2022-09-24T01:14:15.955Z,54.43
2022-09-24T01:15:15.938Z,57.28
2022-09-24T01:16:16.000Z,52.60
2022-09-24T01:17:15.934Z,56.58
2022-09-24T01:18:15.914Z,54.24
2022-09-24T01:19:15.911Z,55.89
2022-09-24T01:20:15.914Z,54.14
2022-09-24T01:21:15.918Z,55.13
2022-09-24T01:22:15.902Z,54.82
2022-09-24T01:23:15.895Z,49.52
2022-09-24T01:24:15.892Z,51.64
2022-09-24T01:25:15.878Z,48.00
2022-09-24T01:26:15.881Z,54.93
2022-09-24T01:27:15.891Z,54.96
2022-09-24T01:28:15.870Z,54.43
2022-09-24T01:29:15.868Z,57.10
2022-09-24T01:30:15.854Z,54.82
2022-09-24T01:31:15.858Z,53.54
2022-09-24T01:32:15.838Z,48.71
2022-09-24T01:33:15.975Z,48.69
2022-09-24T01:34:15.813Z,52.15
2022-09-24T01:35:15.815Z,54.32
2022-09-24T01:36:15.809Z,54.94
2022-09-24T01:37:15.797Z,55.52
2022-09-24T01:38:15.807Z,53.86
2022-09-24T01:39:15.806Z,53.20
2022-09-24T01:40:15.854Z,55.50
2022-09-24T01:41:15.778Z,50.70
2022-09-24T01:42:15.775Z,49.51
2022-09-24T01:43:15.788Z,56.56
2022-09-24T01:44:15.753Z,51.69
2022-09-24T01:45:15.745Z,56.24
2022-09-24T01:46:15.791Z,52.39
2022-09-24T01:47:15.731Z,50.67
2022-09-24T01:48:16.351Z,48.51
2022-09-24T01:49:15.703Z,50.67
2022-09-24T01:50:15.712Z,46.61
2022-09-24T01:51:15.713Z,50.30
2022-09-24T01:52:15.697Z,52.92
2022-09-24T01:53:15.694Z,53.19
2022-09-24T01:54:15.698Z,51.21
2022-09-24T01:55:15.669Z,48.44
2022-09-24T01:56:15.674Z,50.78
2022-09-24T01:57:15.674Z,52.92
2022-09-24T01:58:15.650Z,51.05
2022-09-24T01:59:15.666Z,53.74
2022-09-24T02:00:15.658Z,53.56
2022-09-24T02:01:15.736Z,49.78
2022-09-24T02:02:15.729Z,46.72
2022-09-24T02:03:15.622Z,47.66
2022-09-24T02:04:15.618Z,51.77
2022-09-24T02:05:15.629Z,54.69
2022-09-24T02:06:15.626Z,53.08
2022-09-24T02:07:15.603Z,51.92
2022-09-24T02:08:15.594Z,54.95
2022-09-24T02:09:15.598Z,51.43
2022-09-24T02:10:15.578Z,54.02
2022-09-24T02:11:15.573Z,56.00
2022-09-24T02:12:15.557Z,56.06
2022-09-24T02:13:15.551Z,54.58
2022-09-24T02:14:15.554Z,51.65
2022-09-24T02:15:15.558Z,49.03
2022-09-24T02:16:15.631Z,52.18
2022-09-24T02:17:15.533Z,50.98
2022-09-24T02:18:15.538Z,52.70
2022-09-24T02:19:15.527Z,49.15
2022-09-24T02:20:15.538Z,54.01
2022-09-24T02:21:15.507Z,51.44
2022-09-24T02:22:15.501Z,49.25
2022-09-24T02:23:15.492Z,49.09
2022-09-24T02:24:15.482Z,54.31
2022-09-24T02:25:16.503Z,53.02
2022-09-24T02:26:15.469Z,53.78
2022-09-24T02:27:15.470Z,50.18
2022-09-24T02:28:15.458Z,55.18
2022-09-24T02:29:15.458Z,56.23
2022-09-24T02:30:15.449Z,56.10
2022-09-24T02:31:15.530Z,55.49
2022-09-24T02:32:15.440Z,51.67
2022-09-24T02:33:15.426Z,47.62
2022-09-24T02:34:15.418Z,54.24
2022-09-24T02:35:15.426Z,53.10
2022-09-24T02:36:15.417Z,54.32
2022-09-24T02:37:15.402Z,51.33
2022-09-24T02:38:15.397Z,51.65
2022-09-24T02:39:15.385Z,56.71
2022-09-24T02:40:15.415Z,55.04
2022-09-24T02:41:15.377Z,51.59
2022-09-24T02:42:15.369Z,52.23
2022-09-24T02:43:15.365Z,53.06
2022-09-24T02:44:15.360Z,53.87
2022-09-24T02:45:15.373Z,47.21
2022-09-24T02:46:15.385Z,49.00
2022-09-24T02:47:15.337Z,52.65
2022-09-24T02:48:15.334Z,52.58
2022-09-24T02:49:15.325Z,49.80
2022-09-24T02:50:15.327Z,48.19
2022-09-24T02:51:15.325Z,50.66
2022-09-24T02:52:15.309Z,51.79
2022-09-24T02:53:15.285Z,48.04
2022-09-24T02:54:16.288Z,53.89
2022-09-24T02:55:15.286Z,54.30
2022-09-24T02:56:15.294Z,56.12
2022-09-24T02:57:15.274Z,54.72
2022-09-24T02:58:15.271Z,51.33
2022-09-24T02:59:15.259Z,52.09
2022-09-24T03:00:15.253Z,53.58
2022-09-24T03:01:15.284Z,48.34
2022-09-24T03:02:15.528Z,49.00
2022-09-24T03:03:15.343Z,51.00
2022-09-24T03:04:15.229Z,55.49
2022-09-24T03:05:15.233Z,55.05
2022-09-24T03:06:15.218Z,54.96
2022-09-24T03:07:15.205Z,54.62
2022-09-24T03:08:15.190Z,54.38
2022-09-24T03:09:15.210Z,53.09
2022-09-24T03:10:15.177Z,51.79
2022-09-24T03:11:18.466Z,53.94
2022-09-24T03:12:16.185Z,53.31
2022-09-24T03:13:15.167Z,54.49
2022-09-24T03:14:15.155Z,56.57
2022-09-24T03:15:15.161Z,56.83
2022-09-24T03:16:15.210Z,55.27
2022-09-24T03:17:16.154Z,54.14
2022-09-24T03:18:15.133Z,54.11
2022-09-24T03:19:15.132Z,54.58
2022-09-24T03:20:15.117Z,53.22
2022-09-24T03:21:15.115Z,53.47
2022-09-24T03:22:15.204Z,53.19
2022-09-24T03:23:15.106Z,54.70
2022-09-24T03:24:15.105Z,56.20
2022-09-24T03:25:15.095Z,52.57
2022-09-24T03:26:15.082Z,54.73
2022-09-24T03:27:15.081Z,53.44
2022-09-24T03:28:15.085Z,56.95
2022-09-24T03:29:15.057Z,54.16
2022-09-24T03:30:15.056Z,55.12
2022-09-24T03:31:15.152Z,55.09
2022-09-24T03:32:15.046Z,57.05
2022-09-24T03:33:15.244Z,53.79
2022-09-24T03:34:15.033Z,54.33
2022-09-24T03:35:15.021Z,54.21
2022-09-24T03:36:15.016Z,55.99
2022-09-24T03:37:15.009Z,54.15
2022-09-24T03:38:15.021Z,51.98
2022-09-24T03:39:14.992Z,56.76
2022-09-24T03:40:15.067Z,55.30
2022-09-24T03:41:14.977Z,53.12
2022-09-24T03:42:14.982Z,54.49
2022-09-24T03:43:15.217Z,56.73
2022-09-24T03:44:14.957Z,52.90
2022-09-24T03:45:14.952Z,55.06
2022-09-24T03:46:15.011Z,55.95
2022-09-24T03:47:14.945Z,55.32
2022-09-24T03:48:14.944Z,57.52
2022-09-24T03:49:15.003Z,58.77
2022-09-24T03:50:14.926Z,56.94
2022-09-24T03:51:14.914Z,54.27
2022-09-24T03:52:14.909Z,56.61
2022-09-24T03:53:14.909Z,55.33
2022-09-24T03:54:14.910Z,54.83
2022-09-24T03:55:14.888Z,54.57
2022-09-24T03:56:14.892Z,52.42
2022-09-24T03:57:14.882Z,54.05
2022-09-24T03:58:14.871Z,54.87
2022-09-24T03:59:14.885Z,55.94
2022-09-24T04:00:14.854Z,57.23
2022-09-24T04:01:14.841Z,56.40
2022-09-24T04:02:14.846Z,57.71
2022-09-24T04:03:14.922Z,52.78
2022-09-24T04:04:14.851Z,53.10
2022-09-24T04:05:14.825Z,57.17
2022-09-24T04:06:14.805Z,55.17
2022-09-24T04:07:14.809Z,55.04
2022-09-24T04:08:14.805Z,56.50
2022-09-24T04:09:14.805Z,55.91
2022-09-24T04:10:14.805Z,54.34
2022-09-24T04:11:14.784Z,56.89
2022-09-24T04:12:14.776Z,56.19
2022-09-24T04:13:14.769Z,54.05
2022-09-24T04:14:14.757Z,56.21
2022-09-24T04:15:14.764Z,54.91
2022-09-24T04:16:14.839Z,53.36
2022-09-24T04:17:14.741Z,55.93
2022-09-24T04:18:14.736Z,52.95
2022-09-24T04:19:14.729Z,54.80
2022-09-24T04:20:14.730Z,56.96
2022-09-24T04:21:14.710Z,58.03
2022-09-24T04:22:14.709Z,57.49
2022-09-24T04:23:14.703Z,58.17
2022-09-24T04:24:14.692Z,57.40
2022-09-24T04:25:15.032Z,55.86
2022-09-24T04:26:15.728Z,53.85
2022-09-24T04:27:14.672Z,54.82
2022-09-24T04:28:14.657Z,59.20
2022-09-24T04:29:14.656Z,60.28
2022-09-24T04:30:14.647Z,59.14
2022-09-24T04:31:14.705Z,57.39
2022-09-24T04:32:14.652Z,55.39
2022-09-24T04:33:14.633Z,58.48
2022-09-24T04:34:14.628Z,60.50
2022-09-24T04:35:14.621Z,58.53
2022-09-24T04:36:14.611Z,58.42
2022-09-24T04:37:14.616Z,56.81
2022-09-24T04:38:14.614Z,56.84
2022-09-24T04:39:14.597Z,56.84
2022-09-24T04:40:14.620Z,57.37
2022-09-24T04:41:14.587Z,57.96
2022-09-24T04:42:16.709Z,58.49
2022-09-24T04:43:14.567Z,57.94
2022-09-24T04:44:14.545Z,53.35
2022-09-24T04:45:14.563Z,56.38
2022-09-24T04:46:14.618Z,58.77
2022-09-24T04:47:14.538Z,58.61
2022-09-24T04:48:14.529Z,55.29
2022-09-24T04:49:14.522Z,57.78
2022-09-24T04:50:14.538Z,57.98
2022-09-24T04:51:14.501Z,56.70
2022-09-24T04:52:14.501Z,59.63
2022-09-24T04:53:14.547Z,58.30
2022-09-24T04:54:15.488Z,58.75
2022-09-24T04:55:14.488Z,58.44
2022-09-24T04:56:14.488Z,56.01
2022-09-24T04:57:14.488Z,60.58
2022-09-24T04:58:14.457Z,57.40
2022-09-24T04:59:14.457Z,58.57
2022-09-24T05:00:14.435Z,58.47
2022-09-24T05:01:14.491Z,59.69
2022-09-24T05:02:14.580Z,58.31
2022-09-24T05:03:14.447Z,59.74
2022-09-24T05:04:14.427Z,58.05
2022-09-24T05:05:14.420Z,57.28
2022-09-24T05:06:14.416Z,54.93
2022-09-24T05:07:14.401Z,54.29
2022-09-24T05:08:14.422Z,53.18
2022-09-24T05:09:14.582Z,57.98
2022-09-24T05:10:14.384Z,57.89
2022-09-24T05:11:14.376Z,58.09
2022-09-24T05:12:14.370Z,58.43
2022-09-24T05:13:14.372Z,57.14
2022-09-24T05:14:14.360Z,56.82
2022-09-24T05:15:14.377Z,57.72
2022-09-24T05:16:14.423Z,58.76
2022-09-24T05:17:14.332Z,57.37
2022-09-24T05:18:14.332Z,57.39
2022-09-24T05:19:14.325Z,57.65
2022-09-24T05:20:14.331Z,56.99
2022-09-24T05:21:14.316Z,57.25
2022-09-24T05:22:14.297Z,57.73
2022-09-24T05:23:14.320Z,56.75
2022-09-24T05:24:14.284Z,57.34
2022-09-24T05:25:14.276Z,57.69
2022-09-24T05:26:14.288Z,58.85
2022-09-24T05:27:14.267Z,57.46
2022-09-24T05:28:14.261Z,58.71
2022-09-24T05:29:14.260Z,59.97
2022-09-24T05:30:14.252Z,59.76
2022-09-24T05:31:14.366Z,56.52
2022-09-24T05:32:14.253Z,56.28
2022-09-24T05:33:14.231Z,58.00
2022-09-24T05:34:14.217Z,56.65
2022-09-24T05:35:14.211Z,59.75
2022-09-24T05:36:14.204Z,57.35
2022-09-24T05:37:14.209Z,56.82
2022-09-24T05:38:14.192Z,58.91
2022-09-24T05:39:14.184Z,58.56
2022-09-24T05:40:14.230Z,58.50
2022-09-24T05:41:14.168Z,58.57
2022-09-24T05:42:14.185Z,56.99
2022-09-24T05:43:14.156Z,59.12
2022-09-24T05:44:14.160Z,57.98
2022-09-24T05:45:14.135Z,58.77
2022-09-24T05:46:15.154Z,58.53
2022-09-24T05:47:14.140Z,55.49
2022-09-24T05:48:14.134Z,55.30
2022-09-24T05:49:14.112Z,56.29
2022-09-24T05:50:14.113Z,58.77
2022-09-24T05:51:14.104Z,58.14
2022-09-24T05:52:14.094Z,57.55
2022-09-24T05:53:14.105Z,57.14
2022-09-24T05:54:14.084Z,58.71
2022-09-24T05:55:14.076Z,57.44
2022-09-24T05:56:14.067Z,58.69
2022-09-24T05:57:14.064Z,56.64
2022-09-24T05:58:14.057Z,57.30
2022-09-24T05:59:14.070Z,55.14
2022-09-24T06:00:14.036Z,55.40
2022-09-24T06:01:14.028Z,56.51
2022-09-24T06:02:14.154Z,57.02
2022-09-24T06:03:14.150Z,56.73
2022-09-24T06:04:14.024Z,57.20
2022-09-24T06:05:14.009Z,59.48
2022-09-24T06:06:14.000Z,57.35
2022-09-24T06:07:13.992Z,57.55
2022-09-24T06:08:13.987Z,55.20
2022-09-24T06:09:13.981Z,55.00
2022-09-24T06:10:13.983Z,56.50
2022-09-24T06:11:13.965Z,57.67
2022-09-24T06:12:13.952Z,57.26
2022-09-24T06:13:13.940Z,57.56
2022-09-24T06:14:13.939Z,56.75
2022-09-24T06:15:13.946Z,57.97
2022-09-24T06:16:13.979Z,56.72
2022-09-24T06:17:13.920Z,57.59
2022-09-24T06:18:13.920Z,56.65
2022-09-24T06:19:13.911Z,55.71
2022-09-24T06:20:13.901Z,58.70
2022-09-24T06:21:13.907Z,56.61
2022-09-24T06:22:13.885Z,55.20
2022-09-24T06:23:13.875Z,54.42
2022-09-24T06:24:13.888Z,55.04
2022-09-24T06:25:13.881Z,56.50
2022-09-24T06:26:13.901Z,54.41
2022-09-24T06:27:13.860Z,56.10
2022-09-24T06:28:13.848Z,55.70
2022-09-24T06:29:13.870Z,55.34
2022-09-24T06:30:13.835Z,54.23
2022-09-24T06:31:14.896Z,54.04
2022-09-24T06:32:13.855Z,56.09
2022-09-24T06:33:13.807Z,55.67
2022-09-24T06:34:13.824Z,55.08
2022-09-24T06:35:13.799Z,55.59
2022-09-24T06:36:13.796Z,54.98
2022-09-24T06:37:13.807Z,55.43
2022-09-24T06:38:13.783Z,54.10
2022-09-24T06:39:13.787Z,54.50
2022-09-24T06:40:13.831Z,56.16
2022-09-24T06:41:13.791Z,55.65
2022-09-24T06:42:13.755Z,56.55
2022-09-24T06:43:13.791Z,54.42
2022-09-24T06:44:13.739Z,54.64
2022-09-24T06:45:13.736Z,53.92
2022-09-24T06:46:13.811Z,54.66
2022-09-24T06:47:13.711Z,54.69
2022-09-24T06:48:13.716Z,54.62
2022-09-24T06:49:13.718Z,55.90
2022-09-24T06:50:13.704Z,55.52
2022-09-24T06:51:13.695Z,54.72
2022-09-24T06:52:13.686Z,55.81
2022-09-24T06:53:13.695Z,54.92
2022-09-24T06:54:13.730Z,54.02
2022-09-24T06:55:13.679Z,55.30
2022-09-24T06:56:13.668Z,54.57
2022-09-24T06:57:13.664Z,55.53
2022-09-24T06:58:13.655Z,54.07
2022-09-24T06:59:13.649Z,52.39
2022-09-24T07:00:13.656Z,55.30
2022-09-24T07:01:13.688Z,53.95
2022-09-24T07:02:13.708Z,53.75
2022-09-24T07:03:13.620Z,52.71
2022-09-24T07:04:13.611Z,53.09
2022-09-24T07:05:13.619Z,55.07
2022-09-24T07:06:13.632Z,55.09
2022-09-24T07:07:13.600Z,53.75
2022-09-24T07:08:13.584Z,52.81
2022-09-24T07:09:13.575Z,54.80
2022-09-24T07:10:13.578Z,54.20
2022-09-24T07:11:13.575Z,53.65
2022-09-24T07:12:13.555Z,54.78
2022-09-24T07:13:13.551Z,54.49
2022-09-24T07:14:13.539Z,54.25
2022-09-24T07:15:13.539Z,55.25
2022-09-24T07:16:13.675Z,54.69
2022-09-24T07:17:13.525Z,54.51
2022-09-24T07:18:13.513Z,54.05
2022-09-24T07:19:13.510Z,54.50
2022-09-24T07:20:13.491Z,55.50
2022-09-24T07:21:13.502Z,54.72
2022-09-24T07:22:13.479Z,55.22
2022-09-24T07:23:14.483Z,55.31
2022-09-24T07:24:13.472Z,55.24
2022-09-24T07:25:13.476Z,54.84
2022-09-24T07:26:13.458Z,56.14
2022-09-24T07:27:13.471Z,55.24
2022-09-24T07:28:13.460Z,53.45
2022-09-24T07:29:13.446Z,55.53
2022-09-24T07:30:13.439Z,54.60
2022-09-24T07:31:13.478Z,54.13
2022-09-24T07:32:13.430Z,54.11
2022-09-24T07:33:13.435Z,55.22
2022-09-24T07:34:13.413Z,54.26
2022-09-24T07:35:13.412Z,54.87
2022-09-24T07:36:13.399Z,54.85
2022-09-24T07:37:13.382Z,55.21
2022-09-24T07:38:14.415Z,54.52
2022-09-24T07:39:13.375Z,54.12
2022-09-24T07:40:13.425Z,55.94
2022-09-24T07:41:13.365Z,53.14
2022-09-24T07:42:13.351Z,52.99
2022-09-24T07:43:13.374Z,55.14
2022-09-24T07:44:13.342Z,52.69
2022-09-24T07:45:13.339Z,54.92
2022-09-24T07:46:13.406Z,53.92
2022-09-24T07:47:15.524Z,53.55
2022-09-24T07:48:14.410Z,53.16
2022-09-24T07:49:13.327Z,54.43
2022-09-24T07:50:13.291Z,55.08
2022-09-24T07:51:13.299Z,53.70
2022-09-24T07:52:13.294Z,54.67
2022-09-24T07:53:13.302Z,53.79
2022-09-24T07:54:17.024Z,52.75
2022-09-24T07:55:14.274Z,53.26
2022-09-24T07:56:13.268Z,51.94
2022-09-24T07:57:13.258Z,52.86
2022-09-24T07:58:13.234Z,53.64
2022-09-24T07:59:13.255Z,52.55
2022-09-24T08:00:13.234Z,52.43
2022-09-24T08:01:13.291Z,54.58
2022-09-24T08:02:13.347Z,53.06
2022-09-24T08:03:13.232Z,52.80
2022-09-24T08:04:13.340Z,53.73
2022-09-24T08:05:13.206Z,55.28
2022-09-24T08:06:13.219Z,54.91
2022-09-24T08:07:13.194Z,52.59
2022-09-24T08:08:13.182Z,52.56
2022-09-24T08:09:13.178Z,52.78
2022-09-24T08:10:13.194Z,52.43
2022-09-24T08:11:13.223Z,52.39
2022-09-24T08:12:13.182Z,52.56
2022-09-24T08:13:13.151Z,53.96
2022-09-24T08:14:13.152Z,52.81
2022-09-24T08:15:13.146Z,54.37
2022-09-24T08:16:13.177Z,53.82
2022-09-24T08:17:13.138Z,54.17
2022-09-24T08:18:13.152Z,53.55
2022-09-24T08:19:13.126Z,51.86
2022-09-24T08:20:13.120Z,51.71
2022-09-24T08:21:13.142Z,54.00
2022-09-24T08:22:13.102Z,53.34
2022-09-24T08:23:13.088Z,53.92
2022-09-24T08:24:13.069Z,53.12
2022-09-24T08:25:13.079Z,54.01
2022-09-24T08:26:13.083Z,53.31
2022-09-24T08:27:17.207Z,53.27
2022-09-24T08:28:14.059Z,52.82
2022-09-24T08:29:13.046Z,55.59
2022-09-24T08:30:13.096Z,54.48
2022-09-24T08:31:13.084Z,54.63
2022-09-24T08:32:13.102Z,53.97
2022-09-24T08:33:13.022Z,54.91
2022-09-24T08:34:13.002Z,54.24
2022-09-24T08:35:13.007Z,53.31
2022-09-24T08:36:13.008Z,54.21
2022-09-24T08:37:12.998Z,53.91
2022-09-24T08:38:13.007Z,53.72
2022-09-24T08:39:12.982Z,53.95
2022-09-24T08:40:13.063Z,54.07
2022-09-24T08:41:12.971Z,54.84
2022-09-24T08:42:13.043Z,53.44
2022-09-24T08:43:12.967Z,54.56
2022-09-24T08:44:12.954Z,53.30
2022-09-24T08:45:12.947Z,54.76
2022-09-24T08:46:12.962Z,55.28
2022-09-24T08:47:12.934Z,54.80
2022-09-24T08:48:12.943Z,54.41
2022-09-24T08:49:12.946Z,53.52
2022-09-24T08:50:12.938Z,53.49
2022-09-24T08:51:12.913Z,53.11
2022-09-24T08:52:12.898Z,54.23
2022-09-24T08:53:12.906Z,54.66
2022-09-24T08:54:12.887Z,54.72
2022-09-24T08:55:12.882Z,55.54
2022-09-24T08:56:12.872Z,56.03
2022-09-24T08:57:12.874Z,53.39
2022-09-24T08:58:12.950Z,54.68
2022-09-24T08:59:12.854Z,54.04
2022-09-24T09:00:12.849Z,53.98
2022-09-24T09:01:13.058Z,55.19
2022-09-24T09:02:12.984Z,54.36
2022-09-24T09:03:12.924Z,53.65
2022-09-24T09:04:12.830Z,53.82
2022-09-24T09:05:12.798Z,55.12
2022-09-24T09:06:12.803Z,54.26
2022-09-24T09:07:12.798Z,55.06
2022-09-24T09:08:33.815Z,53.49
2022-09-24T09:09:14.802Z,54.32
2022-09-24T09:10:12.765Z,55.14
2022-09-24T09:11:12.766Z,54.52
2022-09-24T09:12:12.764Z,53.70
2022-09-24T09:13:12.758Z,54.79
2022-09-24T09:14:12.759Z,54.44
2022-09-24T09:15:12.753Z,53.83
2022-09-24T09:16:12.768Z,54.16
2022-09-24T09:17:12.742Z,54.42
2022-09-24T09:18:12.727Z,55.58
2022-09-24T09:19:12.732Z,55.15
2022-09-24T09:20:12.711Z,55.33
2022-09-24T09:21:12.711Z,56.23
2022-09-24T09:22:12.702Z,60.02
2022-09-24T09:23:12.695Z,54.84
2022-09-24T09:24:12.702Z,56.72
2022-09-24T09:25:12.682Z,57.73
2022-09-24T09:26:12.673Z,55.68
2022-09-24T09:27:12.672Z,55.24
2022-09-24T09:28:12.659Z,55.25
2022-09-24T09:29:12.694Z,54.96
2022-09-24T09:30:14.320Z,54.75
2022-09-24T09:31:13.697Z,56.18
2022-09-24T09:32:12.634Z,55.49
2022-09-24T09:33:12.644Z,54.79
2022-09-24T09:34:12.609Z,56.48
2022-09-24T09:35:12.623Z,54.85
2022-09-24T09:36:12.603Z,54.83
2022-09-24T09:37:12.592Z,55.20
2022-09-24T09:38:12.582Z,55.46
2022-09-24T09:39:12.576Z,55.02
2022-09-24T09:40:12.619Z,55.25
2022-09-24T09:41:12.562Z,53.78
2022-09-24T09:42:12.554Z,55.68
2022-09-24T09:43:12.559Z,56.22
2022-09-24T09:44:12.536Z,55.52
2022-09-24T09:45:12.542Z,53.51
2022-09-24T09:46:12.659Z,54.13
2022-09-24T09:47:12.511Z,56.71
2022-09-24T09:48:12.521Z,55.50
2022-09-24T09:49:12.509Z,54.17
2022-09-24T09:50:12.514Z,54.31
2022-09-24T09:51:12.508Z,55.44
2022-09-24T09:52:12.481Z,53.55
2022-09-24T09:53:12.552Z,55.64
2022-09-24T09:54:12.527Z,52.94
2022-09-24T09:55:12.482Z,55.17
2022-09-24T09:56:12.464Z,53.63
2022-09-24T09:57:12.449Z,54.27
2022-09-24T09:58:12.433Z,53.73
2022-09-24T09:59:12.441Z,53.82
2022-09-24T10:00:12.422Z,54.19
2022-09-24T10:01:12.434Z,54.20
2022-09-24T10:02:12.565Z,55.08
2022-09-24T10:03:12.485Z,55.20
2022-09-24T10:04:12.399Z,54.48
2022-09-24T10:05:17.639Z,53.62
2022-09-24T10:06:14.387Z,54.45
2022-09-24T10:07:12.395Z,52.46
2022-09-24T10:08:12.370Z,51.99
2022-09-24T10:09:12.362Z,52.14
2022-09-24T10:10:12.357Z,53.49
2022-09-24T10:11:12.358Z,53.84
2022-09-24T10:12:12.356Z,52.42
2022-09-24T10:13:12.340Z,53.20
2022-09-24T10:14:12.412Z,53.49
2022-09-24T10:15:12.326Z,54.15
2022-09-24T10:16:12.415Z,55.51
2022-09-24T10:17:12.306Z,54.84
2022-09-24T10:18:12.390Z,53.28
2022-09-24T10:19:12.295Z,53.50
2022-09-24T10:20:12.299Z,54.15
2022-09-24T10:21:12.275Z,55.62
2022-09-24T10:22:12.288Z,54.09
2022-09-24T10:23:12.270Z,55.37
2022-09-24T10:24:12.268Z,53.51
2022-09-24T10:25:12.238Z,53.71
2022-09-24T10:26:12.242Z,53.75
2022-09-24T10:27:12.259Z,55.07
2022-09-24T10:28:12.229Z,55.66
2022-09-24T10:29:12.223Z,54.48
2022-09-24T10:30:12.216Z,54.02
2022-09-24T10:31:12.268Z,55.20
2022-09-24T10:32:12.563Z,54.97
2022-09-24T10:33:12.208Z,53.76
2022-09-24T10:34:12.193Z,53.12
2022-09-24T10:35:12.170Z,53.26
2022-09-24T10:36:13.173Z,53.91
2022-09-24T10:37:12.159Z,55.31
2022-09-24T10:38:12.168Z,54.30
2022-09-24T10:39:12.155Z,54.39
2022-09-24T10:40:12.173Z,53.42
2022-09-24T10:41:12.144Z,53.79
2022-09-24T10:42:12.131Z,54.06
2022-09-24T10:43:12.135Z,54.25
2022-09-24T10:44:12.174Z,55.72
2022-09-24T10:45:12.115Z,54.25
2022-09-24T10:46:12.134Z,54.12
2022-09-24T10:47:12.094Z,53.26
2022-09-24T10:48:12.109Z,53.51
2022-09-24T10:49:12.086Z,53.89
2022-09-24T10:50:12.186Z,54.98
2022-09-24T10:51:12.078Z,53.73
2022-09-24T10:52:12.063Z,53.17
2022-09-24T10:53:12.065Z,55.15
2022-09-24T10:54:12.155Z,53.11
2022-09-24T10:55:12.052Z,53.56
2022-09-24T10:56:12.046Z,53.44
2022-09-24T10:57:12.039Z,54.27
2022-09-24T10:58:12.031Z,52.60
2022-09-24T10:59:12.054Z,53.86
2022-09-24T11:00:12.070Z,53.91
2022-09-24T11:01:12.031Z,53.93
2022-09-24T11:02:12.076Z,54.14
2022-09-24T11:03:12.050Z,54.22
2022-09-24T11:04:12.061Z,54.59
2022-09-24T11:05:11.989Z,54.56
2022-09-24T11:06:11.975Z,53.91
2022-09-24T11:07:11.980Z,54.51
2022-09-24T11:08:11.971Z,54.85
2022-09-24T11:09:11.979Z,53.53
2022-09-24T11:10:11.955Z,54.52
2022-09-24T11:11:11.954Z,56.00
2022-09-24T11:12:11.944Z,53.71
2022-09-24T11:13:11.935Z,53.47
2022-09-24T11:14:11.965Z,54.40
2022-09-24T11:15:11.943Z,52.72
2022-09-24T11:16:11.940Z,52.40
2022-09-24T11:17:11.915Z,53.80
2022-09-24T11:18:11.892Z,54.60
2022-09-24T11:19:11.920Z,53.85
2022-09-24T11:20:11.951Z,53.33
2022-09-24T11:21:11.885Z,53.28
2022-09-24T11:22:11.884Z,53.78
2022-09-24T11:23:11.873Z,54.23
2022-09-24T11:24:11.920Z,53.89
2022-09-24T11:25:11.880Z,52.67
2022-09-24T11:26:11.852Z,52.42
2022-09-24T11:27:11.845Z,53.93
2022-09-24T11:28:11.836Z,53.35
2022-09-24T11:29:11.827Z,53.73
2022-09-24T11:30:11.900Z,53.12
2022-09-24T11:31:11.853Z,52.34
2022-09-24T11:32:11.814Z,51.07
2022-09-24T11:33:11.807Z,50.05
2022-09-24T11:34:11.937Z,54.76
2022-09-24T11:35:11.802Z,52.66
2022-09-24T11:36:11.785Z,52.04
2022-09-24T11:37:11.781Z,53.40
2022-09-24T11:38:11.773Z,51.86
2022-09-24T11:39:11.770Z,52.91
2022-09-24T11:40:11.896Z,52.63
2022-09-24T11:41:11.782Z,53.29
2022-09-24T11:42:11.745Z,51.06
2022-09-24T11:43:11.740Z,51.85
2022-09-24T11:44:11.799Z,53.88
2022-09-24T11:45:11.729Z,57.40
2022-09-24T11:46:11.778Z,52.29
2022-09-24T11:47:11.718Z,52.69
2022-09-24T11:48:11.698Z,52.49
2022-09-24T11:49:11.699Z,52.94
2022-09-24T11:50:11.752Z,52.89
2022-09-24T11:51:11.700Z,53.05
2022-09-24T11:52:11.693Z,52.97
2022-09-24T11:53:11.666Z,53.55
2022-09-24T11:54:11.706Z,54.25
2022-09-24T11:55:11.666Z,53.78
2022-09-24T11:56:13.358Z,52.36
2022-09-24T11:57:11.659Z,52.69
2022-09-24T11:58:11.643Z,52.27
2022-09-24T11:59:11.636Z,51.48
2022-09-24T12:00:11.673Z,51.94
2022-09-24T12:01:11.638Z,53.16
2022-09-24T12:02:11.654Z,52.38
2022-09-24T12:03:11.674Z,52.20
2022-09-24T12:04:11.635Z,52.92
2022-09-24T12:05:11.596Z,52.62
2022-09-24T12:06:11.590Z,51.96
2022-09-24T12:07:11.584Z,51.96
2022-09-24T12:08:11.574Z,52.37
2022-09-24T12:09:11.568Z,52.92
2022-09-24T12:10:11.672Z,51.04
2022-09-24T12:11:11.548Z,52.55
2022-09-24T12:12:11.554Z,53.25
2022-09-24T12:13:11.563Z,53.14
2022-09-24T12:14:11.584Z,52.55
2022-09-24T12:15:11.531Z,52.82
2022-09-24T12:16:11.558Z,52.73
2022-09-24T12:17:11.508Z,52.57
2022-09-24T12:18:11.505Z,52.90
2022-09-24T12:19:11.501Z,52.20
2022-09-24T12:20:11.553Z,52.14
2022-09-24T12:21:11.488Z,50.62
2022-09-24T12:22:11.488Z,51.99
2022-09-24T12:23:11.491Z,53.20
2022-09-24T12:24:11.480Z,50.03
2022-09-24T12:25:11.453Z,50.87
2022-09-24T12:26:11.454Z,51.43
2022-09-24T12:27:11.444Z,50.89
2022-09-24T12:28:11.449Z,51.56
2022-09-24T12:29:11.436Z,50.53
2022-09-24T12:30:11.450Z,50.05
2022-09-24T12:31:12.546Z,52.89
2022-09-24T12:32:12.411Z,52.23
2022-09-24T12:33:11.404Z,51.32
2022-09-24T12:34:11.483Z,50.61
2022-09-24T12:35:11.397Z,52.14
2022-09-24T12:36:11.374Z,48.52
2022-09-24T12:37:11.371Z,51.80
2022-09-24T12:38:11.376Z,51.95
2022-09-24T12:39:11.380Z,52.01
2022-09-24T12:40:11.513Z,52.76
2022-09-24T12:41:11.348Z,50.53
2022-09-24T12:42:11.349Z,51.40
2022-09-24T12:43:11.340Z,51.06
2022-09-24T12:44:11.567Z,52.03
2022-09-24T12:45:11.329Z,53.89
2022-09-24T12:46:11.348Z,51.20
2022-09-24T12:47:11.321Z,51.35
2022-09-24T12:48:11.304Z,52.09
2022-09-24T12:49:11.301Z,52.46
2022-09-24T12:50:11.365Z,51.19
2022-09-24T12:51:11.289Z,51.82
2022-09-24T12:52:11.297Z,52.32